createdAt,value
2023-05-10T00:00:24.800Z,7.63
2023-05-10T00:02:52.814Z,8.63
2023-05-10T00:05:22.214Z,10.80
2023-05-10T00:07:49.876Z,6.37
2023-05-10T00:10:17.838Z,7.00
2023-05-10T00:12:45.660Z,7.03
2023-05-10T00:15:13.430Z,7.60
2023-05-10T00:17:41.484Z,5.33
2023-05-10T00:20:10.162Z,6.00
2023-05-10T00:22:39.177Z,7.63
2023-05-10T00:25:08.397Z,4.90
2023-05-10T00:27:36.080Z,15.20
2023-05-10T00:30:03.985Z,7.10
2023-05-10T00:32:32.249Z,15.40
2023-05-10T00:35:00.315Z,7.97
2023-05-10T00:37:28.694Z,11.03
2023-05-10T00:39:57.816Z,5.07
2023-05-10T00:42:25.487Z,6.50
2023-05-10T00:44:55.110Z,6.50
2023-05-10T00:47:22.858Z,7.87
2023-05-10T00:49:50.680Z,8.47
2023-05-10T00:52:18.354Z,9.80
2023-05-10T00:54:46.359Z,7.40
2023-05-10T00:57:15.873Z,10.43
2023-05-10T00:59:43.651Z,5.60
2023-05-10T01:02:11.328Z,10.50
2023-05-10T01:04:40.402Z,10.67
2023-05-10T01:07:08.173Z,12.67
2023-05-10T01:09:36.636Z,5.20
2023-05-10T01:12:05.082Z,4.90
2023-05-10T01:14:35.321Z,6.23
2023-05-10T01:17:03.161Z,9.70
2023-05-10T01:19:31.854Z,7.27
2023-05-10T01:22:06.189Z,8.27
2023-05-10T01:24:47.688Z,6.43
2023-05-10T01:27:50.184Z,6.37
2023-05-10T01:30:37.537Z,10.30
2023-05-10T01:33:13.375Z,8.30
2023-05-10T01:35:44.008Z,10.13
2023-05-10T01:38:18.494Z,13.33
2023-05-10T01:40:53.381Z,6.40
2023-05-10T01:43:25.093Z,5.83
2023-05-10T01:46:01.615Z,7.90
2023-05-10T01:48:31.554Z,7.77
2023-05-10T01:50:59.455Z,5.97
2023-05-10T01:53:28.072Z,9.53
2023-05-10T01:55:57.527Z,7.10
2023-05-10T01:58:29.684Z,7.00
2023-05-10T02:00:58.180Z,7.80
2023-05-10T02:03:27.248Z,6.00
2023-05-10T02:05:59.174Z,7.93
2023-05-10T02:08:27.375Z,5.60
2023-05-10T02:10:57.811Z,7.20
2023-05-10T02:13:27.010Z,6.43
2023-05-10T02:15:58.077Z,5.13
2023-05-10T02:18:26.255Z,7.30
2023-05-10T02:20:57.137Z,5.60
2023-05-10T02:23:25.610Z,8.23
2023-05-10T02:25:53.785Z,6.07
2023-05-10T02:28:23.434Z,6.60
2023-05-10T02:30:51.208Z,7.43
2023-05-10T02:33:19.496Z,16.00
2023-05-10T02:35:47.824Z,7.07
2023-05-10T02:38:17.097Z,12.63
2023-05-10T02:40:45.076Z,7.13
2023-05-10T02:43:15.301Z,6.63
2023-05-10T02:45:44.885Z,7.00
2023-05-10T02:48:12.624Z,7.13
2023-05-10T02:50:42.333Z,8.13
2023-05-10T02:53:13.106Z,6.23
2023-05-10T02:55:43.198Z,6.67
2023-05-10T02:58:11.072Z,11.43
2023-05-10T03:00:38.682Z,5.10
2023-05-10T03:03:06.448Z,8.20
2023-05-10T03:05:34.613Z,6.70
2023-05-10T03:08:05.864Z,6.90
2023-05-10T03:10:35.049Z,11.03
2023-05-10T03:13:15.291Z,7.40
2023-05-10T03:15:50.013Z,7.23
2023-05-10T03:18:20.828Z,10.90
2023-05-10T03:20:50.424Z,6.90
2023-05-10T03:23:24.019Z,5.37
2023-05-10T03:25:52.372Z,7.20
2023-05-10T03:28:22.615Z,10.60
2023-05-10T03:30:51.267Z,10.00
2023-05-10T03:33:18.847Z,5.53
2023-05-10T03:35:48.329Z,7.53
2023-05-10T03:38:17.061Z,8.63
2023-05-10T03:40:44.773Z,7.47
2023-05-10T03:43:12.559Z,8.90
2023-05-10T03:45:41.622Z,6.30
2023-05-10T03:48:09.562Z,7.03
2023-05-10T03:50:37.260Z,7.93
2023-05-10T03:53:05.547Z,6.57
2023-05-10T03:55:37.026Z,7.20
2023-05-10T03:58:04.881Z,5.57
2023-05-10T04:00:33.932Z,7.93
2023-05-10T04:03:03.425Z,8.60
2023-05-10T04:05:31.279Z,11.10
2023-05-10T04:07:58.837Z,6.17
2023-05-10T04:10:26.482Z,4.93
2023-05-10T04:12:54.432Z,6.77
2023-05-10T04:15:22.217Z,19.30
2023-05-10T04:17:50.147Z,11.73
2023-05-10T04:20:19.765Z,9.90
2023-05-10T04:22:47.468Z,8.70
2023-05-10T04:25:15.216Z,5.87
2023-05-10T04:27:42.990Z,8.10
2023-05-10T04:30:11.603Z,6.40
2023-05-10T04:32:39.329Z,7.33
2023-05-10T04:35:07.807Z,9.60
2023-05-10T04:37:37.437Z,8.70
2023-05-10T04:40:06.276Z,7.33
2023-05-10T04:42:34.590Z,21.00
2023-05-10T04:45:02.154Z,8.50
2023-05-10T04:47:29.947Z,8.13
2023-05-10T04:49:57.810Z,8.87
2023-05-10T04:52:25.489Z,15.67
2023-05-10T04:54:54.520Z,9.90
2023-05-10T04:57:22.235Z,9.03
2023-05-10T04:59:50.483Z,7.07
2023-05-10T05:02:18.441Z,10.63
2023-05-10T05:04:46.062Z,6.47
2023-05-10T05:07:13.857Z,6.70
2023-05-10T05:09:41.541Z,10.20
2023-05-10T05:12:14.811Z,6.60
2023-05-10T05:14:43.083Z,9.30
2023-05-10T05:17:10.800Z,6.13
2023-05-10T05:19:38.530Z,5.77
2023-05-10T05:22:08.682Z,6.70
2023-05-10T05:24:38.728Z,8.10
2023-05-10T05:27:06.675Z,6.53
2023-05-10T05:29:35.899Z,6.90
2023-05-10T05:32:04.219Z,12.47
2023-05-10T05:34:32.180Z,12.23
2023-05-10T05:36:59.918Z,8.07
2023-05-10T05:39:27.621Z,12.23
2023-05-10T05:41:55.420Z,10.37
2023-05-10T05:44:23.114Z,10.03
2023-05-10T05:46:52.082Z,8.47
2023-05-10T05:49:19.914Z,6.47
2023-05-10T05:51:48.474Z,6.70
2023-05-10T05:54:16.269Z,7.47
2023-05-10T05:56:45.226Z,7.33
2023-05-10T05:59:13.062Z,10.90
2023-05-10T06:01:40.805Z,7.27
2023-05-10T06:04:09.966Z,5.43
2023-05-10T06:06:37.630Z,7.80
2023-05-10T06:09:05.287Z,5.70
2023-05-10T06:11:33.165Z,6.90
2023-05-10T06:14:01.492Z,10.17
2023-05-10T06:16:29.496Z,9.43
2023-05-10T06:18:57.404Z,6.97
2023-05-10T06:21:26.485Z,4.73
2023-05-10T06:23:54.274Z,9.13
2023-05-10T06:26:22.728Z,11.47
2023-05-10T06:28:52.790Z,8.23
2023-05-10T06:31:20.667Z,6.30
2023-05-10T06:33:51.793Z,8.80
2023-05-10T06:36:19.503Z,10.10
2023-05-10T06:38:48.618Z,6.80
2023-05-10T06:41:16.375Z,5.23
2023-05-10T06:43:44.533Z,13.17
2023-05-10T06:46:12.169Z,11.23
2023-05-10T06:48:39.769Z,5.80
2023-05-10T06:51:07.654Z,5.83
2023-05-10T06:53:35.297Z,6.63
2023-05-10T06:56:04.697Z,5.73
2023-05-10T06:58:33.599Z,8.53
2023-05-10T07:01:05.191Z,9.63
2023-05-10T07:03:33.163Z,11.00
2023-05-10T07:06:05.364Z,7.17
2023-05-10T07:08:33.650Z,5.40
2023-05-10T07:11:04.456Z,8.40
2023-05-10T07:13:33.079Z,6.13
2023-05-10T07:16:01.526Z,10.30
2023-05-10T07:18:29.301Z,6.27
2023-05-10T07:20:57.102Z,7.40
2023-05-10T07:23:25.121Z,6.50
2023-05-10T07:25:53.508Z,6.37
2023-05-10T07:28:22.632Z,6.20
2023-05-10T07:30:50.538Z,6.03
2023-05-10T07:33:18.426Z,5.50
2023-05-10T07:35:46.374Z,10.10
2023-05-10T07:38:14.135Z,10.57
2023-05-10T07:40:42.005Z,6.60
2023-05-10T07:43:09.894Z,7.40
2023-05-10T07:45:39.857Z,7.83
2023-05-10T07:48:07.845Z,8.77
2023-05-10T07:50:35.755Z,6.60
2023-05-10T07:53:03.422Z,9.67
2023-05-10T07:55:31.241Z,9.80
2023-05-10T07:57:58.940Z,6.60
2023-05-10T08:00:26.738Z,8.33
2023-05-10T08:02:55.854Z,5.83
2023-05-10T08:05:23.622Z,5.80
2023-05-10T08:07:51.376Z,7.30
2023-05-10T08:10:19.140Z,7.70
2023-05-10T08:12:46.996Z,5.57
2023-05-10T08:15:15.016Z,8.70
2023-05-10T08:17:44.138Z,8.30
2023-05-10T08:20:17.646Z,8.30
2023-05-10T08:22:45.508Z,7.60
2023-05-10T08:25:13.306Z,7.53
2023-05-10T08:27:41.389Z,13.70
2023-05-10T08:30:10.631Z,7.13
2023-05-10T08:32:39.126Z,6.03
2023-05-10T08:35:07.432Z,7.90
2023-05-10T08:37:36.769Z,5.47
2023-05-10T08:40:05.177Z,10.37
2023-05-10T08:42:37.196Z,7.83
2023-05-10T08:45:05.589Z,7.70
2023-05-10T08:47:33.405Z,11.33
2023-05-10T08:50:01.892Z,5.60
2023-05-10T08:52:30.550Z,9.40
2023-05-10T08:55:00.113Z,11.13
2023-05-10T08:57:28.008Z,10.00
2023-05-10T08:59:55.818Z,7.83
2023-05-10T09:02:25.376Z,6.20
2023-05-10T09:04:53.358Z,7.90
2023-05-10T09:07:21.878Z,5.60
2023-05-10T09:09:49.710Z,6.83
2023-05-10T09:12:18.822Z,14.53
2023-05-10T09:14:46.684Z,7.70
2023-05-10T09:17:14.856Z,8.57
2023-05-10T09:19:42.695Z,9.60
2023-05-10T09:22:10.519Z,8.07
2023-05-10T09:24:43.329Z,11.43
2023-05-10T09:27:11.459Z,8.80
2023-05-10T09:29:44.152Z,6.80
2023-05-10T09:32:13.804Z,9.83
2023-05-10T09:34:42.173Z,5.87
2023-05-10T09:37:10.587Z,6.50
2023-05-10T09:39:39.678Z,8.33
2023-05-10T09:42:09.737Z,13.33
2023-05-10T09:44:38.973Z,10.23
2023-05-10T09:47:07.994Z,6.80
2023-05-10T09:49:36.484Z,8.80
2023-05-10T09:52:05.504Z,5.97
2023-05-10T09:54:37.393Z,10.93
2023-05-10T09:57:05.194Z,7.57
2023-05-10T09:59:36.010Z,9.30
2023-05-10T10:02:03.903Z,9.27
2023-05-10T10:04:33.655Z,7.17
2023-05-10T10:07:03.633Z,9.30
2023-05-10T10:09:31.534Z,7.67
2023-05-10T10:11:59.757Z,11.93
2023-05-10T10:14:27.531Z,12.23
2023-05-10T10:17:05.565Z,9.40
2023-05-10T10:19:37.926Z,9.90
2023-05-10T10:22:06.380Z,8.77
2023-05-10T10:24:34.147Z,14.93
2023-05-10T10:27:09.780Z,11.90
2023-05-10T10:29:43.242Z,9.77
2023-05-10T10:32:14.419Z,8.67
2023-05-10T10:34:43.609Z,12.00
2023-05-10T10:37:11.294Z,12.40
2023-05-10T10:39:39.033Z,9.90
2023-05-10T10:42:07.052Z,12.43
2023-05-10T10:44:42.611Z,14.00
2023-05-10T10:47:29.157Z,10.20
2023-05-10T10:50:07.082Z,10.00
2023-05-10T10:52:35.728Z,10.03
2023-05-10T10:55:06.257Z,10.67
2023-05-10T10:57:35.348Z,11.07
2023-05-10T11:00:31.805Z,19.13
2023-05-10T11:03:01.104Z,12.90
2023-05-10T11:05:48.395Z,10.50
2023-05-10T11:08:18.733Z,14.33
2023-05-10T11:10:53.296Z,11.37
2023-05-10T11:13:29.922Z,16.17
2023-05-10T11:15:58.469Z,10.77
2023-05-10T11:18:27.643Z,14.20
2023-05-10T11:20:59.187Z,11.43
2023-05-10T11:23:31.777Z,13.97
2023-05-10T11:25:59.940Z,13.03
2023-05-10T11:28:28.896Z,12.83
2023-05-10T11:30:56.915Z,11.23
2023-05-10T11:33:24.751Z,11.07
2023-05-10T11:35:52.581Z,15.30
2023-05-10T11:38:21.737Z,11.80
2023-05-10T11:40:54.269Z,11.23
2023-05-10T11:43:26.632Z,11.00
2023-05-10T11:45:54.428Z,12.00
2023-05-10T11:48:24.746Z,11.47
2023-05-10T11:50:52.388Z,14.40
2023-05-10T11:53:22.467Z,16.53
2023-05-10T11:55:51.060Z,12.47
2023-05-10T11:58:20.185Z,11.57
2023-05-10T12:00:48.456Z,13.53
2023-05-10T12:03:16.467Z,16.20
2023-05-10T12:05:44.245Z,13.97
2023-05-10T12:08:15.987Z,14.20
2023-05-10T12:10:44.985Z,12.77
2023-05-10T12:13:16.160Z,14.53
2023-05-10T12:15:44.411Z,15.27
2023-05-10T12:18:12.717Z,12.97
2023-05-10T12:20:40.666Z,13.77
2023-05-10T12:23:10.898Z,13.20
2023-05-10T12:25:39.477Z,13.73
2023-05-10T12:28:10.089Z,13.57
2023-05-10T12:30:38.784Z,14.10
2023-05-10T12:33:10.830Z,14.43
2023-05-10T12:35:46.850Z,13.40
2023-05-10T12:38:31.646Z,14.27
2023-05-10T12:41:00.244Z,13.63
2023-05-10T12:43:29.604Z,13.90
2023-05-10T12:45:57.299Z,15.40
2023-05-10T12:48:25.226Z,13.70
2023-05-10T12:50:52.821Z,14.13
2023-05-10T12:53:20.822Z,13.13
2023-05-10T12:55:48.459Z,13.53
2023-05-10T12:58:27.823Z,13.07
2023-05-10T13:01:05.824Z,13.90
2023-05-10T13:03:33.788Z,13.37
2023-05-10T13:06:01.370Z,13.13
2023-05-10T13:08:30.721Z,14.20
2023-05-10T13:10:58.422Z,12.20
2023-05-10T13:13:26.080Z,13.03
2023-05-10T13:15:53.768Z,11.13
2023-05-10T13:18:22.865Z,13.70
2023-05-10T13:20:50.637Z,12.20
2023-05-10T13:23:18.376Z,10.10
2023-05-10T13:25:45.993Z,11.17
2023-05-10T13:28:13.692Z,11.50
2023-05-10T13:30:41.387Z,10.63
2023-05-10T13:33:09.010Z,11.37
2023-05-10T13:35:38.202Z,10.80
2023-05-10T13:38:08.781Z,9.90
2023-05-10T13:40:36.985Z,9.53
2023-05-10T13:43:04.708Z,8.07
2023-05-10T13:45:32.312Z,7.63
2023-05-10T13:47:59.962Z,8.10
2023-05-10T13:50:28.027Z,6.90
2023-05-10T13:52:57.186Z,7.47
2023-05-10T13:55:25.067Z,7.53
2023-05-10T13:57:52.799Z,12.87
2023-05-10T14:00:20.874Z,9.60
2023-05-10T14:02:48.665Z,7.63
2023-05-10T14:05:17.152Z,8.93
2023-05-10T14:07:46.464Z,10.97
2023-05-10T14:10:15.699Z,9.20
2023-05-10T14:12:43.526Z,9.60
2023-05-10T14:15:12.583Z,9.00
2023-05-10T14:17:40.435Z,8.77
2023-05-10T14:20:09.365Z,9.10
2023-05-10T14:22:37.286Z,8.80
2023-05-10T14:25:05.381Z,9.33
2023-05-10T14:27:34.408Z,9.30
2023-05-10T14:30:01.931Z,9.33
2023-05-10T14:32:29.688Z,10.77
2023-05-10T14:34:57.729Z,9.67
2023-05-10T14:37:25.263Z,9.47
2023-05-10T14:39:53.352Z,8.87
2023-05-10T14:42:20.915Z,7.80
2023-05-10T14:44:49.889Z,7.00
2023-05-10T14:47:17.444Z,9.73
2023-05-10T14:49:45.127Z,7.63
2023-05-10T14:52:13.179Z,6.63
2023-05-10T14:54:41.269Z,7.53
2023-05-10T14:57:09.065Z,7.00
2023-05-10T14:59:36.630Z,6.83
2023-05-10T15:02:06.496Z,6.67
2023-05-10T15:04:34.468Z,7.53
2023-05-10T15:07:02.451Z,7.23
2023-05-10T15:09:30.078Z,7.03
2023-05-10T15:11:57.696Z,7.63
2023-05-10T15:14:25.563Z,7.80
2023-05-10T15:16:53.155Z,7.67
2023-05-10T15:19:22.250Z,7.77
2023-05-10T15:21:49.930Z,7.27
2023-05-10T15:24:17.610Z,9.03
2023-05-10T15:26:45.751Z,7.13
2023-05-10T15:29:13.449Z,6.90
2023-05-10T15:31:41.091Z,7.47
2023-05-10T15:34:08.806Z,6.47
2023-05-10T15:36:37.720Z,6.60
2023-05-10T15:39:05.480Z,8.83
2023-05-10T15:41:33.344Z,7.87
2023-05-10T15:44:01.714Z,7.70
2023-05-10T15:46:29.785Z,7.70
2023-05-10T15:48:58.118Z,7.10
2023-05-10T15:51:26.125Z,8.10
2023-05-10T15:54:06.409Z,8.77
2023-05-10T15:56:35.097Z,7.37
2023-05-10T15:59:03.606Z,7.10
2023-05-10T16:01:32.645Z,10.13
2023-05-10T16:04:00.425Z,7.30
2023-05-10T16:06:28.150Z,6.40
2023-05-10T16:08:57.514Z,7.40
2023-05-10T16:11:25.131Z,6.07
2023-05-10T16:13:52.793Z,7.17
2023-05-10T16:16:20.479Z,7.67
2023-05-10T16:18:48.255Z,8.63
2023-05-10T16:21:16.331Z,7.10
2023-05-10T16:23:46.272Z,8.60
2023-05-10T16:26:15.336Z,6.70
2023-05-10T16:28:43.144Z,8.50
2023-05-10T16:31:10.883Z,8.57
2023-05-10T16:33:38.484Z,13.20
2023-05-10T16:36:06.591Z,8.93
2023-05-10T16:38:34.308Z,9.93
2023-05-10T16:41:03.567Z,12.40
2023-05-10T16:43:33.553Z,11.13
2023-05-10T16:46:01.222Z,10.37
2023-05-10T16:48:28.935Z,9.60
2023-05-10T16:50:56.530Z,10.37
2023-05-10T16:53:24.180Z,10.60
2023-05-10T16:55:51.971Z,10.57
2023-05-10T16:58:19.602Z,9.90
2023-05-10T17:00:48.707Z,10.57
2023-05-10T17:03:16.811Z,8.80
2023-05-10T17:05:44.632Z,9.50
2023-05-10T17:08:12.367Z,8.43
2023-05-10T17:10:41.041Z,11.27
2023-05-10T17:13:10.387Z,8.10
2023-05-10T17:15:38.588Z,9.03
2023-05-10T17:18:08.128Z,11.20
2023-05-10T17:20:35.844Z,8.47
2023-05-10T17:23:03.546Z,11.40
2023-05-10T17:25:31.251Z,7.87
2023-05-10T17:27:58.872Z,8.43
2023-05-10T17:30:28.743Z,9.20
2023-05-10T17:32:56.642Z,9.33
2023-05-10T17:35:25.732Z,9.10
2023-05-10T17:37:53.456Z,8.33
2023-05-10T17:40:21.127Z,10.27
2023-05-10T17:42:48.977Z,11.43
2023-05-10T17:45:16.763Z,12.27
2023-05-10T17:47:44.535Z,10.13
2023-05-10T17:50:12.235Z,9.43
2023-05-10T17:52:41.173Z,10.77
2023-05-10T17:55:09.784Z,8.93
2023-05-10T17:57:38.658Z,9.13
2023-05-10T18:00:08.808Z,8.70
2023-05-10T18:02:36.777Z,9.63
2023-05-10T18:05:04.612Z,9.37
2023-05-10T18:07:32.367Z,8.17
2023-05-10T18:10:01.924Z,10.10
2023-05-10T18:12:29.526Z,11.13
2023-05-10T18:14:57.755Z,10.10
2023-05-10T18:17:25.399Z,9.77
2023-05-10T18:19:53.569Z,9.83
2023-05-10T18:22:21.294Z,10.13
2023-05-10T18:24:48.905Z,10.67
2023-05-10T18:27:17.894Z,10.57
2023-05-10T18:29:45.757Z,11.53
2023-05-10T18:32:13.324Z,11.10
2023-05-10T18:34:41.045Z,10.83
2023-05-10T18:37:09.600Z,10.10
2023-05-10T18:39:37.610Z,9.90
2023-05-10T18:42:05.675Z,9.87
2023-05-10T18:44:34.683Z,10.07
2023-05-10T18:47:02.551Z,10.70
2023-05-10T18:49:30.222Z,9.37
2023-05-10T18:51:57.929Z,11.17
2023-05-10T18:54:26.783Z,10.37
2023-05-10T18:56:54.463Z,11.20
2023-05-10T18:59:22.819Z,9.80
2023-05-10T19:01:52.685Z,9.50
2023-05-10T19:04:22.049Z,10.30
2023-05-10T19:06:50.168Z,8.87
2023-05-10T19:09:20.049Z,8.50
2023-05-10T19:11:48.488Z,10.00
2023-05-10T19:14:16.281Z,7.33
2023-05-10T19:16:44.154Z,8.60
2023-05-10T19:19:13.265Z,8.33
2023-05-10T19:21:40.949Z,8.47
2023-05-10T19:24:08.837Z,7.57
2023-05-10T19:26:36.935Z,8.33
2023-05-10T19:29:04.995Z,8.63
2023-05-10T19:31:33.637Z,9.00
2023-05-10T19:34:01.975Z,7.73
2023-05-10T19:36:32.771Z,6.20
2023-05-10T19:39:00.930Z,7.70
2023-05-10T19:41:28.655Z,7.00
2023-05-10T19:43:56.406Z,6.53
2023-05-10T19:46:24.717Z,6.93
2023-05-10T19:48:53.193Z,7.00
2023-05-10T19:51:21.106Z,7.93
2023-05-10T19:53:50.281Z,6.27
2023-05-10T19:56:18.388Z,6.60
2023-05-10T19:58:46.176Z,13.03
2023-05-10T20:01:13.869Z,8.60
2023-05-10T20:03:41.650Z,8.73
2023-05-10T20:06:09.944Z,9.50
2023-05-10T20:08:37.709Z,9.00
2023-05-10T20:11:06.995Z,9.53
2023-05-10T20:13:34.644Z,11.40
2023-05-10T20:16:02.578Z,11.73
2023-05-10T20:18:30.279Z,11.17
2023-05-10T20:20:59.507Z,12.17
2023-05-10T20:23:27.498Z,12.30
2023-05-10T20:25:55.566Z,11.70
2023-05-10T20:28:26.218Z,11.23
2023-05-10T20:30:55.088Z,11.63
2023-05-10T20:33:29.098Z,12.03
2023-05-10T20:35:56.711Z,11.73
2023-05-10T20:38:24.460Z,12.83
2023-05-10T20:40:52.297Z,13.30
2023-05-10T20:43:21.354Z,14.90
2023-05-10T20:45:50.475Z,15.63
2023-05-10T20:48:19.783Z,14.30
2023-05-10T20:50:47.508Z,16.97
2023-05-10T20:53:15.447Z,15.30
2023-05-10T20:55:43.132Z,14.40
2023-05-10T20:58:10.786Z,15.50
2023-05-10T21:00:38.454Z,15.70
2023-05-10T21:03:07.563Z,17.43
2023-05-10T21:05:36.078Z,16.27
2023-05-10T21:08:03.767Z,15.87
2023-05-10T21:10:31.610Z,16.37
2023-05-10T21:12:59.331Z,16.43
2023-05-10T21:15:27.766Z,18.00
2023-05-10T21:17:55.663Z,17.13
2023-05-10T21:20:25.262Z,18.80
2023-05-10T21:22:52.908Z,17.80
2023-05-10T21:25:20.655Z,18.33
2023-05-10T21:27:48.373Z,18.37
2023-05-10T21:30:16.615Z,19.40
2023-05-10T21:32:44.535Z,18.83
2023-05-10T21:35:12.141Z,19.57
2023-05-10T21:37:41.649Z,19.90
2023-05-10T21:40:10.357Z,20.70
2023-05-10T21:42:38.204Z,20.47
2023-05-10T21:45:07.273Z,22.93
2023-05-10T21:47:35.084Z,23.57
2023-05-10T21:50:02.911Z,24.43
2023-05-10T21:52:30.472Z,25.10
2023-05-10T21:54:59.451Z,27.33
2023-05-10T21:57:27.126Z,25.83
2023-05-10T21:59:54.756Z,26.70
2023-05-10T22:02:22.552Z,28.63
2023-05-10T22:04:50.421Z,25.10
2023-05-10T22:07:18.159Z,23.87
2023-05-10T22:09:45.836Z,22.43
2023-05-10T22:12:14.881Z,18.70
2023-05-10T22:14:42.564Z,19.50
2023-05-10T22:17:10.369Z,21.60
2023-05-10T22:19:38.230Z,20.10
2023-05-10T22:22:05.984Z,16.97
2023-05-10T22:24:33.683Z,21.30
2023-05-10T22:27:01.965Z,20.80
2023-05-10T22:29:30.967Z,24.90
2023-05-10T22:31:58.838Z,24.13
2023-05-10T22:34:26.746Z,24.20
2023-05-10T22:36:54.509Z,21.80
2023-05-10T22:39:22.521Z,22.83
2023-05-10T22:41:50.157Z,24.50
2023-05-10T22:44:17.885Z,25.63
2023-05-10T22:46:46.941Z,27.17
2023-05-10T22:49:14.848Z,25.93
2023-05-10T22:51:42.765Z,27.70
2023-05-10T22:54:10.328Z,27.10
2023-05-10T22:56:38.022Z,23.77
2023-05-10T22:59:05.934Z,23.77
2023-05-10T23:01:33.739Z,25.50
2023-05-10T23:04:02.853Z,28.23
2023-05-10T23:06:30.492Z,30.00
2023-05-10T23:08:58.239Z,34.03
2023-05-10T23:11:26.111Z,32.03
2023-05-10T23:13:53.760Z,34.87
2023-05-10T23:16:21.586Z,34.37
2023-05-10T23:18:49.400Z,36.47
2023-05-10T23:21:18.510Z,35.70
2023-05-10T23:23:46.163Z,36.00
2023-05-10T23:26:13.884Z,39.00
2023-05-10T23:28:41.880Z,30.80
2023-05-10T23:31:09.462Z,35.23
2023-05-10T23:33:37.190Z,34.43
2023-05-10T23:36:05.100Z,33.10
2023-05-10T23:38:34.388Z,34.43
2023-05-10T23:41:02.141Z,32.10
2023-05-10T23:43:29.843Z,29.50
2023-05-10T23:45:58.139Z,33.30
2023-05-10T23:48:26.015Z,33.67
2023-05-10T23:50:53.772Z,34.80
2023-05-10T23:53:21.465Z,35.03
2023-05-10T23:55:51.233Z,30.40
2023-05-10T23:58:18.856Z,30.47
